Flight Track Log - Related Links

Times and Time Zones

All times are in EDT time to prevent confusion due to time zone crossing. See the MTN8324 flight status page for this flight to view local times or setup timezone preferences in your user account.

Time Position Orientation Groundspeed Altitude Reporting Facility
EDT Latitude Longitude Course Direction KTS MPH feet Rate Location/Type
Tue 04:06:39 AM 40.7000 -74.1500 37° Northeast 134 154 1,400  Level New York TRACON
Tue 04:07:39 AM 40.7333 -74.1167 37° Northeast 158 182 2,900 1,500 Climbing New York TRACON
Tue 04:08:39 AM 40.7833 -74.1333 346° North 152 175 4,400 1,500 Climbing New York TRACON
Tue 04:09:39 AM 40.8167 -74.1667 323° Northwest 161 185 5,900 1,400 Climbing New York TRACON
Tue 04:10:39 AM 40.8500 -74.2000 323° Northwest 172 198 7,200 1,300 Climbing New York TRACON
Tue 04:11:39 AM 40.9000 -74.2167 346° North 182 209 8,500 1,274 Climbing New York TRACON
Tue 04:13:38 AM 40.9864 -74.2867 329° Northwest 173 199 11,000 1,106 Climbing New York Center
Tue 04:14:38 AM 41.0142 -74.3322 309° West 164 189 11,800 850 Climbing New York Center
Tue 04:15:38 AM 41.0397 -74.3831 304° West 162 186 12,700 800 Climbing New York Center
Tue 04:16:38 AM 41.0653 -74.4339 304° West 169 194 13,400 700 Climbing New York Center
Tue 04:17:38 AM 41.0906 -74.4906 301° West 169 194 14,100 750 Climbing New York Center
Tue 04:18:38 AM 41.1181 -74.5442 304° West 174 200 14,900 800 Climbing New York Center
Tue 04:19:38 AM 41.1433 -74.6008 301° West 174 200 15,700 550 Climbing New York Center
Tue 04:20:38 AM 41.1706 -74.6575 303° West 179 206 16,000 150 Climbing New York Center
Tue 04:21:38 AM 41.1975 -74.7197 300° West 191 220 16,000  Level New York Center
Tue 04:22:38 AM 41.2328 -74.7906 304° West 218 251 16,000  Level New York Center
Tue 04:23:38 AM 41.2636 -74.8614 300° West 229 264 16,000  Level New York Center
Tue 04:24:38 AM 41.2964 -74.9353 301° West 229 264 16,000  Level New York Center
Tue 04:25:38 AM 41.3314 -75.0092 302° West 234 269 16,000  Level New York Center
Tue 04:26:38 AM 41.3625 -75.0719 303° West 229 264 16,000  Level New York Center
Tue 04:27:38 AM 41.3931 -75.1458 299° West 229 264 16,000  Level New York Center
Tue 04:28:38 AM 41.4317 -75.2258 303° West 235 270 16,000  Level New York Center
Tue 04:29:38 AM 41.4642 -75.3000 300° West 230 265 16,000  Level New York Center
Tue 04:30:38 AM 41.4950 -75.3658 302° West 230 265 16,000  Level New York Center
Tue 04:31:38 AM 41.5275 -75.4400 300° West 230 265 16,000  Level New York Center
Tue 04:32:38 AM 41.5619 -75.5200 300° West 230 265 16,000  Level New York Center
Tue 04:33:38 AM 41.5964 -75.5919 303° West 230 265 16,000  Level New York Center
Tue 04:34:38 AM 41.6269 -75.6633 300° West 230 265 16,000  Level New York Center
Tue 04:35:38 AM 41.6611 -75.7381 301° West 230 265 16,000  Level New York Center
Tue 04:36:38 AM 41.6936 -75.8100 301° West 230 265 16,000  Level New York Center
Tue 04:37:38 AM 41.7219 -75.8761 300° West 230 265 16,000  Level New York Center
Tue 04:38:38 AM 41.7542 -75.9481 301° West 230 265 16,000  Level New York Center
Tue 04:39:38 AM 41.7883 -76.0286 300° West 230 265 16,000  Level New York Center
Tue 04:40:38 AM 41.8203 -76.1008 301° West 230 265 16,000  Level New York Center
Tue 04:41:38 AM 41.8508 -76.1644 303° West 230 265 16,000  Level New York Center
Tue 04:42:38 AM 41.8808 -76.2364 299° West 230 265 16,000  Level New York Center
Tue 04:43:38 AM 41.9167 -76.3147 302° West 230 265 16,000  Level New York Center
Tue 04:44:38 AM 41.9469 -76.3814 301° West 230 265 16,000  Level New York Center
Tue 04:45:38 AM 41.9789 -76.4567 300° West 230 265 16,000  Level New York Center
Tue 04:46:38 AM 42.0128 -76.5294 302° West 230 265 16,000  Level New York Center
Tue 04:49:07 AM 42.0911 -76.7089 301° West 227 261 16,000 -29 Level Cleveland Center
Tue 04:50:07 AM 42.1228 -76.7819 300° West 227 261 15,900 -50 Descending Cleveland Center
Tue 04:51:08 AM 42.1544 -76.8561 300° West 229 264 15,900  Level Cleveland Center
Tue 04:52:08 AM 42.1867 -76.9300 300° West 229 264 15,900  Level Cleveland Center
Tue 04:53:08 AM 42.2192 -77.0033 301° West 229 264 15,900  Level Cleveland Center
Tue 04:54:09 AM 42.2497 -77.0761 300° West 224 258 15,900  Level Cleveland Center
Tue 04:55:09 AM 42.2819 -77.1497 301° West 225 259 15,900  Level Cleveland Center
Tue 04:56:10 AM 42.3136 -77.2239 300° West 228 262 15,900  Level Cleveland Center
Tue 04:57:10 AM 42.3453 -77.2986 300° West 229 264 15,900  Level Cleveland Center
Tue 04:58:11 AM 42.3772 -77.3728 300° West 228 262 15,900  Level Cleveland Center
Tue 04:59:11 AM 42.4089 -77.4478 300° West 229 264 15,900  Level Cleveland Center
Tue 05:00:11 AM 42.4419 -77.5258 300° West 229 264 15,900 -248 Level Cleveland Center
Tue 05:01:12 AM 42.4744 -77.6022 300° West 233 268 15,400 -744 Descending Cleveland Center
Tue 05:02:12 AM 42.5089 -77.6853 299° West 252 290 14,400 -992 Descending Cleveland Center
Tue 05:03:13 AM 42.5431 -77.7667 300° West 249 287 13,400 -992 Descending Cleveland Center
Tue 05:04:13 AM 42.5764 -77.8453 300° West 243 280 12,400 -992 Descending Cleveland Center
Tue 05:05:14 AM 42.6200 -77.9128 311° West 240 276 11,400 -694 Descending Cleveland Center
Tue 05:06:14 AM 42.6614 -77.9847 308° West 239 275 11,000 -198 Descending Cleveland Center
Tue 05:07:15 AM 42.7028 -78.0489 311° West 229 264 11,000  Level Cleveland Center
Tue 05:08:15 AM 42.7431 -78.1161 309° West 228 262 11,000 -99 Level Cleveland Center
Tue 05:09:16 AM 42.7847 -78.1783 312° West 224 258 10,800 -1,140 Descending Cleveland Center
Tue 05:10:16 AM 42.8275 -78.2564 307° West 222 255 8,700 -1,884 Descending Cleveland Center
Tue 05:11:17 AM 42.8656 -78.3186 310° West 222 255 7,000 -1,736 Descending Cleveland Center
Tue 05:12:17 AM 42.9075 -78.3861 310° West 223 257 5,200 -1,587 Descending Cleveland Center
Tue 05:13:18 AM 42.9417 -78.4431 309° West 206 237 3,800 -1,438 Descending Cleveland Center
Tue 05:14:18 AM 42.9761 -78.4967 311° West 183 211 2,300 -744 Descending Cleveland Center
Tue 05:15:19 AM 42.9989 -78.5483 301° West 175 201 2,300  Level Cleveland Center
Tue 05:16:19 AM 43.0067 -78.6092 280° West 165 190 2,300 -107 Level Cleveland Center
Tue 05:17:11 AM 43.0000 -78.6500 257° West 160 184 2,100 -536 Descending Buffalo TRACON
Tue 05:18:11 AM 42.9667 -78.7000 228° Southwest 127 146 1,300 -800 Descending Buffalo TRACON

Login

Don't have an account? Register now (free) for customized features, flight alerts, and more!